Time;durP1;ratioP1;P1;durP2;ratioP2;P2;SDS_P1;SDS_P2;PMS_P1;PMS_P2;Temp;Humidity;BMP_temperature;BMP_pressure;BME280_temperature;BME280_humidity;BME280_pressure;Samples;Min_cycle;Max_cycle;Signal;HPM_P1;HPM_P2
2023/10/17 00:00:38;;;;;;;4.28;2.33;;;7.70;99.90;;;;;;5093826;28;20054;-84
2023/10/17 00:03:10;;;;;;;4.93;2.20;;;7.70;99.90;;;;;;5092937;28;20514;-84
2023/10/17 00:05:36;;;;;;;;;;;7.60;99.90;;;;;;5092848;28;20381;-84
2023/10/17 00:08:04;;;;;;;5.55;2.10;;;7.50;99.90;;;;;;5092952;28;19899;-84
2023/10/17 00:10:41;;;;;;;3.45;2.20;;;7.50;99.90;;;;;;5093728;28;20038;-84
2023/10/17 00:13:31;;;;;;;3.55;2.20;;;7.50;99.90;;;;;;5093160;28;20115;-84
2023/10/17 00:15:58;;;;;;;4.68;2.40;;;7.60;99.90;;;;;;5093002;28;20452;-84
2023/10/17 00:18:26;;;;;;;2.92;2.22;;;7.60;99.90;;;;;;5092263;28;20376;-84
2023/10/17 00:20:53;;;;;;;3.13;1.95;;;7.50;99.90;;;;;;5093994;28;20016;-84
2023/10/17 00:23:22;;;;;;;3.40;2.33;;;7.50;99.90;;;;;;5092271;28;20051;-85
2023/10/17 00:25:51;;;;;;;3.42;2.30;;;7.60;99.90;;;;;;5092861;28;20032;-85
2023/10/17 00:28:20;;;;;;;6.30;2.35;;;7.60;99.90;;;;;;5092188;28;20070;-84
2023/10/17 00:30:48;;;;;;;4.53;2.40;;;7.40;99.90;;;;;;5093125;28;20108;-85
2023/10/17 00:33:15;;;;;;;3.72;2.30;;;7.40;99.90;;;;;;5094073;28;20020;-85
2023/10/17 00:35:48;;;;;;;4.15;1.92;;;7.40;99.90;;;;;;5093659;28;20040;-85
2023/10/17 00:38:15;;;;;;;3.05;2.08;;;7.30;99.90;;;;;;5093833;28;20027;-85
2023/10/17 00:41:18;;;;;;;5.95;2.05;;;7.30;99.90;;;;;;5093206;28;20051;-85
2023/10/17 00:43:35;;;;;;;4.32;2.35;;;7.30;99.90;;;;;;5091028;28;20124;-85
2023/10/17 00:46:01;;;;;;;6.10;2.10;;;7.30;99.90;;;;;;5094103;28;20035;-85
2023/10/17 00:48:27;;;;;;;3.65;1.85;;;7.20;99.90;;;;;;5092122;28;20024;-85
2023/10/17 00:51:01;;;;;;;5.13;2.03;;;7.20;99.90;;;;;;5092531;28;20028;-85
2023/10/17 00:53:27;;;;;;;4.55;1.98;;;7.30;99.90;;;;;;5093219;28;20069;-85
2023/10/17 00:55:56;;;;;;;3.13;2.13;;;7.20;99.90;;;;;;5092654;28;20020;-85
2023/10/17 00:58:23;;;;;;;2.78;1.80;;;7.20;99.90;;;;;;5092059;28;20119;-84
2023/10/17 01:00:54;;;;;;;2.90;1.98;;;7.20;99.90;;;;;;5092477;28;20025;-85
2023/10/17 01:03:20;;;;;;;4.00;2.10;;;7.20;99.90;;;;;;5093399;28;20020;-84
2023/10/17 01:08:44;;;;;;;3.67;1.80;;;7.30;99.90;;;;;;5096775;28;20042;-84
2023/10/17 01:11:27;;;;;;;4.32;2.00;;;7.30;99.90;;;;;;5096385;28;20031;-84
2023/10/17 01:13:53;;;;;;;5.35;2.05;;;7.20;99.90;;;;;;5097479;28;20300;-84
2023/10/17 01:16:24;;;;;;;2.58;1.27;;;7.20;99.90;;;;;;5095446;28;20028;-84
2023/10/17 01:18:50;;;;;;;3.30;1.65;;;7.30;99.90;;;;;;5096470;28;20518;-85
2023/10/17 01:21:19;;;;;;;4.07;1.65;;;7.30;99.90;;;;;;5097327;28;20020;-84
2023/10/17 01:23:46;;;;;;;2.40;1.80;;;7.30;99.90;;;;;;5096875;28;20471;-85
2023/10/17 01:26:38;;;;;;;4.47;1.83;;;7.20;99.90;;;;;;5097176;28;20016;-85
2023/10/17 01:29:03;;;;;;;5.05;2.00;;;7.10;99.90;;;;;;5096757;28;20077;-85
2023/10/17 01:31:31;;;;;;;4.43;2.08;;;7.10;99.90;;;;;;5095486;28;20418;-85
2023/10/17 01:33:59;;;;;;;2.92;1.77;;;7.00;99.90;;;;;;5095968;28;20028;-83
2023/10/17 01:36:25;;;;;;;4.57;2.15;;;7.00;99.90;;;;;;5095446;28;20445;-84
2023/10/17 01:38:52;;;;;;;3.45;2.05;;;7.00;99.90;;;;;;5096937;28;20020;-84
2023/10/17 01:41:18;;;;;;;3.25;1.85;;;7.00;99.90;;;;;;5095837;28;20077;-84
2023/10/17 01:43:48;;;;;;;6.38;2.13;;;7.00;99.90;;;;;;5096530;28;20046;-84
2023/10/17 01:46:21;;;;;;;2.83;2.08;;;6.90;99.90;;;;;;5096550;28;20024;-84
2023/10/17 01:48:48;;;;;;;3.13;1.95;;;7.00;99.90;;;;;;5095834;28;20020;-84
2023/10/17 01:51:15;;;;;;;3.17;1.50;;;7.00;99.90;;;;;;5095609;28;20081;-84
2023/10/17 01:53:43;;;;;;;4.75;1.88;;;7.00;99.90;;;;;;5094940;28;20091;-84
2023/10/17 01:56:15;;;;;;;2.97;1.85;;;6.90;99.90;;;;;;5095698;28;20054;-84
2023/10/17 01:58:50;;;;;;;4.20;1.88;;;6.90;99.90;;;;;;5095106;28;20415;-84
2023/10/17 02:01:31;;;;;;;2.33;1.60;;;6.90;99.90;;;;;;5095605;28;20062;-84
2023/10/17 02:04:04;;;;;;;3.38;1.73;;;6.90;99.90;;;;;;5095466;28;20031;-84
2023/10/17 02:06:32;;;;;;;3.97;1.85;;;6.90;99.90;;;;;;5096081;28;20061;-83
2023/10/17 02:08:58;;;;;;;2.65;1.70;;;6.90;99.90;;;;;;5095417;28;20024;-84
2023/10/17 02:11:26;;;;;;;8.90;1.90;;;6.90;99.90;;;;;;5094708;28;20380;-83
2023/10/17 02:13:59;;;;;;;2.75;1.92;;;6.90;99.90;;;;;;5095091;28;20016;-84
2023/10/17 02:16:28;;;;;;;2.63;1.67;;;6.90;99.90;;;;;;5095798;28;20030;-85
2023/10/17 02:18:58;;;;;;;4.03;1.95;;;6.90;99.90;;;;;;5095018;28;20028;-85
2023/10/17 02:21:26;;;;;;;3.08;1.70;;;6.90;99.90;;;;;;5095792;28;20020;-85
2023/10/17 02:23:51;;;;;;;2.85;1.50;;;6.90;99.90;;;;;;5094910;28;20028;-85
2023/10/17 02:26:22;;;;;;;2.72;1.80;;;6.90;99.90;;;;;;5095969;28;20027;-86
2023/10/17 02:28:54;;;;;;;3.97;1.95;;;6.90;99.90;;;;;;5095973;28;20069;-85
2023/10/17 02:31:27;;;;;;;;;;;6.80;99.90;;;;;;5096552;28;20016;-85
2023/10/17 02:33:54;;;;;;;2.92;2.22;;;6.80;99.90;;;;;;5096092;28;19900;-86
2023/10/17 02:36:19;;;;;;;3.25;1.77;;;6.80;99.90;;;;;;5094672;28;20042;-86
2023/10/17 02:38:45;;;;;;;3.60;1.90;;;6.80;99.90;;;;;;5095426;28;20099;-84
2023/10/17 02:41:22;;;;;;;3.65;1.70;;;6.80;99.90;;;;;;5095518;28;20016;-84
2023/10/17 02:43:52;;;;;;;2.38;1.50;;;6.80;99.90;;;;;;5095188;28;20016;-86
2023/10/17 02:46:18;;;;;;;4.20;2.03;;;6.80;99.90;;;;;;5095883;28;20016;-83
2023/10/17 02:48:47;;;;;;;3.78;1.83;;;6.80;99.90;;;;;;5093941;28;20456;-84
2023/10/17 02:53:50;;;;;;;3.00;1.95;;;6.70;99.90;;;;;;5095096;28;20074;-83
2023/10/17 02:56:19;;;;;;;4.40;2.05;;;6.70;99.90;;;;;;5095549;28;20027;-83
2023/10/17 02:58:50;;;;;;;3.33;1.98;;;6.70;99.90;;;;;;5093761;28;20031;-83
2023/10/17 03:01:17;;;;;;;5.20;1.90;;;6.70;99.90;;;;;;5094161;28;20078;-84
2023/10/17 03:03:43;;;;;;;3.70;2.28;;;6.70;99.90;;;;;;5093717;28;20449;-83
2023/10/17 03:06:08;;;;;;;2.83;1.70;;;6.70;99.90;;;;;;5094357;28;20028;-84
2023/10/17 03:08:36;;;;;;;3.35;1.90;;;6.80;99.90;;;;;;5093624;28;20024;-84
2023/10/17 03:11:07;;;;;;;5.18;1.77;;;6.80;99.90;;;;;;5094070;28;20084;-84
2023/10/17 03:13:40;;;;;;;5.47;1.83;;;6.80;99.90;;;;;;5093706;28;20201;-83
2023/10/17 03:16:25;;;;;;;2.95;1.80;;;6.70;99.90;;;;;;5094071;28;20085;-83
2023/10/17 03:18:52;;;;;;;4.25;1.73;;;6.70;99.90;;;;;;5094231;28;20465;-84
2023/10/17 03:21:29;;;;;;;3.47;1.98;;;6.70;99.90;;;;;;5094115;28;20012;-85
2023/10/17 03:24:00;;;;;;;2.70;1.95;;;6.70;99.90;;;;;;5093955;28;20024;-85
2023/10/17 03:26:29;;;;;;;2.83;1.80;;;6.80;99.90;;;;;;5092916;28;20024;-80
2023/10/17 03:28:55;;;;;;;3.10;1.90;;;6.80;99.90;;;;;;5093736;28;20121;-84
2023/10/17 03:31:20;;;;;;;2.90;1.52;;;6.70;99.90;;;;;;5094792;28;20095;-84
2023/10/17 03:33:50;;;;;;;3.60;1.80;;;6.70;99.90;;;;;;5093062;28;20059;-84
2023/10/17 03:42:06;;;;;;;2.78;1.75;;;6.70;99.90;;;;;;5052409;28;20021;-85
2023/10/17 03:44:31;;;;;;;3.30;1.80;;;6.80;99.90;;;;;;5085305;28;20046;-85
2023/10/17 03:47:04;;;;;;;3.60;1.83;;;6.80;99.90;;;;;;5093615;28;20020;-85
2023/10/17 03:49:36;;;;;;;3.75;2.22;;;6.80;99.90;;;;;;5093998;28;20056;-85
2023/10/17 03:52:04;;;;;;;3.30;2.28;;;6.80;99.90;;;;;;5094507;28;20069;-84
2023/10/17 03:54:30;;;;;;;2.90;1.77;;;6.90;99.90;;;;;;5093763;28;20020;-84
2023/10/17 03:56:56;;;;;;;2.55;1.80;;;6.90;99.90;;;;;;5094328;28;20085;-84
2023/10/17 04:02:21;;;;;;;2.70;2.00;;;6.90;99.90;;;;;;5084778;28;20059;-84
2023/10/17 04:04:57;;;;;;;3.45;1.67;;;6.90;99.90;;;;;;5092610;28;20024;-84
2023/10/17 04:07:26;;;;;;;2.70;1.70;;;6.90;99.90;;;;;;5093339;28;20016;-84
2023/10/17 04:09:52;;;;;;;3.35;1.90;;;6.90;99.90;;;;;;5092711;28;20441;-84
2023/10/17 04:12:38;;;;;;;4.18;2.28;;;6.90;99.90;;;;;;5092931;28;20028;-84
2023/10/17 04:15:09;;;;;;;3.25;1.80;;;6.90;99.90;;;;;;5092747;28;20194;-85
2023/10/17 04:17:36;;;;;;;2.53;1.80;;;7.00;99.90;;;;;;5092456;28;20093;-85
2023/10/17 04:20:11;;;;;;;5.25;1.90;;;6.90;99.90;;;;;;5092883;28;20031;-85
2023/10/17 04:22:38;;;;;;;4.03;1.90;;;6.90;99.90;;;;;;5092445;28;20028;-85
2023/10/17 04:25:20;;;;;;;3.42;1.95;;;7.00;99.90;;;;;;5093934;28;20035;-85
2023/10/17 04:27:54;;;;;;;3.10;1.88;;;7.00;99.80;;;;;;5083334;28;20483;-85
2023/10/17 04:30:22;;;;;;;3.88;2.45;;;7.00;99.90;;;;;;5073898;28;20020;-85
2023/10/17 04:32:52;;;;;;;1.70;1.55;;;6.90;99.80;;;;;;5072492;28;20028;-85
2023/10/17 04:35:21;;;;;;;3.05;1.73;;;7.00;99.80;;;;;;5073537;28;20062;-85
2023/10/17 04:38:09;;;;;;;2.78;1.75;;;7.00;99.80;;;;;;5074715;28;20025;-85
2023/10/17 04:40:50;;;;;;;4.53;1.63;;;7.00;99.80;;;;;;5077205;28;20027;-85
2023/10/17 04:46:02;;;;;;;2.25;1.60;;;7.00;99.80;;;;;;5077945;28;20047;-85
2023/10/17 04:48:35;;;;;;;2.75;1.48;;;7.00;99.90;;;;;;5076171;28;20025;-84
2023/10/17 04:53:47;;;;;;;2.30;1.60;;;7.00;99.90;;;;;;5077266;28;20024;-85
2023/10/17 04:56:15;;;;;;;4.07;1.83;;;7.00;99.90;;;;;;5076664;28;20021;-85
2023/10/17 04:58:53;;;;;;;4.30;2.17;;;7.00;99.90;;;;;;5075952;28;20086;-86
2023/10/17 06:17:47;;;;;;;4.70;1.90;;;7.20;99.90;;;;;;5075548;28;20523;-84
2023/10/17 06:20:13;;;;;;;3.30;1.73;;;7.20;99.90;;;;;;5075097;28;20117;-84
2023/10/17 06:28:20;;;;;;;4.93;2.28;;;7.30;99.90;;;;;;5076087;28;20025;-84
2023/10/17 06:30:48;;;;;;;5.65;2.00;;;7.40;99.90;;;;;;5074398;28;20111;-84
2023/10/17 06:33:17;;;;;;;4.65;2.10;;;7.40;99.90;;;;;;5075878;28;20064;-85
2023/10/17 06:35:54;;;;;;;5.10;2.38;;;7.30;99.90;;;;;;5073957;28;20036;-85
2023/10/17 06:38:27;;;;;;;4.90;2.20;;;7.20;99.90;;;;;;5075081;28;20028;-86
2023/10/17 06:40:53;;;;;;;5.97;2.25;;;7.30;99.90;;;;;;5077919;28;20048;-84
2023/10/17 06:43:27;;;;;;;4.38;2.03;;;7.40;99.90;;;;;;5074545;28;20078;-83
2023/10/17 06:45:55;;;;;;;3.63;1.92;;;7.40;99.90;;;;;;5081849;28;20054;-82
2023/10/17 06:48:31;;;;;;;5.20;2.15;;;7.50;99.90;;;;;;5081357;28;20025;-84
2023/10/17 06:53:48;;;;;;;4.55;2.47;;;7.50;99.90;;;;;;5085285;28;20442;-85
2023/10/17 06:56:17;;;;;;;4.25;1.90;;;7.40;99.90;;;;;;5085296;28;20361;-83
2023/10/17 06:58:42;;;;;;;4.38;2.30;;;7.40;99.90;;;;;;5084438;28;20016;-83
2023/10/17 07:01:23;;;;;;;4.07;1.90;;;7.40;99.90;;;;;;5086837;28;20425;-83
2023/10/17 07:03:54;;;;;;;4.95;2.13;;;7.40;99.90;;;;;;5084910;28;20111;-83
2023/10/17 07:06:23;;;;;;;7.70;2.28;;;7.50;99.90;;;;;;5084679;28;20011;-86
2023/10/17 07:08:50;;;;;;;5.43;2.50;;;7.60;99.80;;;;;;5089252;28;20024;-84
2023/10/17 07:16:34;;;;;;;6.22;2.28;;;7.70;99.40;;;;;;5074899;28;20035;-84
2023/10/17 07:19:46;;;;;;;5.30;2.17;;;7.70;99.30;;;;;;5093091;28;20024;-83
2023/10/17 07:24:26;;;;;;;5.88;2.63;;;7.90;99.30;;;;;;5094332;28;20040;-84
2023/10/17 07:26:55;;;;;;;5.28;2.65;;;7.90;99.30;;;;;;5101685;28;20055;-84
2023/10/17 07:29:22;;;;;;;6.57;3.00;;;7.90;99.20;;;;;;5100693;28;20050;-84
2023/10/17 07:31:53;;;;;;;7.22;3.70;;;8.00;99.10;;;;;;5092793;28;20023;-83
2023/10/17 07:34:23;;;;;;;4.72;3.00;;;8.00;99.00;;;;;;5114616;28;20039;-83
2023/10/17 07:36:58;;;;;;;7.88;2.63;;;8.10;98.90;;;;;;5102584;28;20051;-81
2023/10/17 07:39:29;;;;;;;6.63;2.55;;;8.10;98.90;;;;;;5099940;28;20172;-80
2023/10/17 07:41:55;;;;;;;5.22;2.45;;;8.20;98.80;;;;;;5109216;28;20114;-80
2023/10/17 07:44:25;;;;;;;3.78;2.28;;;8.30;99.10;;;;;;5097186;28;20118;-80
2023/10/17 07:47:08;;;;;;;5.47;2.33;;;8.20;98.80;;;;;;5104082;28;20024;-80
2023/10/17 07:49:38;;;;;;;5.47;2.10;;;8.30;98.80;;;;;;5093142;28;20024;-83
2023/10/17 07:52:17;;;;;;;4.40;2.40;;;8.30;98.60;;;;;;5095634;28;20053;-82
2023/10/17 07:54:55;;;;;;;4.78;2.47;;;8.40;98.50;;;;;;5105032;28;20024;-81
2023/10/17 07:57:24;;;;;;;5.03;2.08;;;8.50;98.70;;;;;;5105721;28;20019;-81
2023/10/17 07:59:51;;;;;;;5.45;2.67;;;8.60;98.80;;;;;;5095269;28;20027;-81
2023/10/17 08:02:23;;;;;;;4.03;2.45;;;8.60;98.60;;;;;;5088905;28;20020;-80
2023/10/17 08:04:50;;;;;;;5.78;2.22;;;8.60;98.50;;;;;;5086893;28;20030;-81
2023/10/17 08:07:19;;;;;;;5.80;2.72;;;8.60;98.60;;;;;;5099990;28;20038;-81
2023/10/17 08:10:09;;;;;;;4.47;2.38;;;8.70;98.50;;;;;;5112574;28;20109;-81
2023/10/17 08:12:33;;;;;;;5.68;2.80;;;8.70;98.50;;;;;;5113328;28;20020;-82
2023/10/17 08:14:59;;;;;;;3.92;2.30;;;8.70;98.30;;;;;;5103396;28;20051;-82
2023/10/17 08:17:27;;;;;;;4.43;2.33;;;8.70;98.20;;;;;;5106219;28;20380;-82
2023/10/17 08:25:52;;;;;;;3.97;2.20;;;8.90;98.20;;;;;;5065900;28;20088;-83
2023/10/17 08:28:33;;;;;;;3.45;2.20;;;8.90;98.20;;;;;;5034811;28;20488;-83
2023/10/17 08:31:05;;;;;;;4.45;2.50;;;9.00;98.40;;;;;;5054094;28;20504;-83
2023/10/17 08:33:37;;;;;;;3.50;2.20;;;9.00;98.20;;;;;;5040363;28;20027;-84
2023/10/17 08:36:03;;;;;;;4.45;2.15;;;9.10;97.90;;;;;;5056397;28;20049;-83
2023/10/17 08:38:33;;;;;;;6.65;2.75;;;9.10;98.00;;;;;;5056666;28;20090;-83
2023/10/17 08:41:05;;;;;;;3.58;2.17;;;9.10;98.10;;;;;;5070661;28;20025;-84
2023/10/17 08:43:32;;;;;;;7.00;2.65;;;9.10;98.00;;;;;;5057244;28;20564;-85
2023/10/17 08:45:58;;;;;;;7.20;2.72;;;9.20;98.00;;;;;;5067260;28;20476;-84
2023/10/17 08:48:24;;;;;;;5.63;2.30;;;9.30;97.90;;;;;;5056492;28;20083;-87
2023/10/17 08:50:55;;;;;;;3.58;2.30;;;9.30;98.00;;;;;;5045707;28;20075;-85
2023/10/17 08:53:21;;;;;;;2.80;2.33;;;9.40;98.20;;;;;;5064403;28;20024;-83
2023/10/17 08:55:51;;;;;;;5.50;2.42;;;9.50;98.30;;;;;;5044431;28;20127;-85
2023/10/17 08:58:32;;;;;;;8.25;3.00;;;9.50;98.00;;;;;;5072397;28;20024;-85
2023/10/17 09:01:10;;;;;;;3.63;2.17;;;9.60;98.10;;;;;;5086366;28;20510;-85
2023/10/17 09:03:41;;;;;;;3.75;2.20;;;9.60;97.70;;;;;;5108418;28;20099;-85
2023/10/17 09:11:30;;;;;;;5.60;2.70;;;9.70;97.70;;;;;;5101525;28;20021;-85
2023/10/17 09:14:24;;;;;;;4.57;2.05;;;9.70;97.70;;;;;;5109832;28;20077;-82
2023/10/17 09:17:39;;;;;;;3.10;2.13;;;9.90;97.70;;;;;;5100551;28;20548;-83
2023/10/17 09:20:05;;;;;;;3.88;2.40;;;9.80;97.40;;;;;;5092664;28;20056;-82
2023/10/17 09:22:32;;;;;;;3.97;2.58;;;9.80;97.30;;;;;;5107555;28;20012;-83
2023/10/17 09:24:59;;;;;;;4.53;2.38;;;9.90;97.10;;;;;;5104119;28;20031;-83
2023/10/17 09:27:31;;;;;;;4.03;2.38;;;9.90;97.20;;;;;;5102704;28;20052;-82
2023/10/17 09:29:59;;;;;;;11.00;2.83;;;9.90;97.00;;;;;;5097716;28;20334;-83
2023/10/17 09:32:33;;;;;;;4.35;2.50;;;10.00;96.90;;;;;;5111022;28;20036;-84
2023/10/17 09:35:04;;;;;;;6.63;2.50;;;10.00;97.10;;;;;;5094644;28;20085;-86
2023/10/17 09:37:32;;;;;;;6.07;3.00;;;10.10;97.00;;;;;;5110143;28;20019;-84
2023/10/17 09:40:03;;;;;;;3.90;2.20;;;10.10;96.80;;;;;;5097416;28;20020;-84
2023/10/17 09:42:29;;;;;;;7.07;2.80;;;10.10;96.80;;;;;;5101483;28;20045;-85
2023/10/17 09:44:56;;;;;;;5.50;2.45;;;10.10;96.80;;;;;;5116459;28;20134;-83
2023/10/17 09:47:25;;;;;;;4.40;2.60;;;10.10;96.80;;;;;;5116165;28;20459;-85
2023/10/17 09:49:55;;;;;;;4.25;2.20;;;10.20;96.60;;;;;;5115087;28;20047;-87
2023/10/17 09:52:23;;;;;;;4.78;2.80;;;10.20;96.40;;;;;;5090569;28;20067;-82
2023/10/17 09:54:51;;;;;;;7.75;2.38;;;10.20;96.50;;;;;;5085038;28;20020;-82
2023/10/17 09:57:20;;;;;;;5.40;2.40;;;10.30;96.50;;;;;;5087803;28;20093;-84
2023/10/17 10:00:08;;;;;;;6.68;2.88;;;10.30;96.40;;;;;;5091971;28;20012;-83
2023/10/17 10:02:38;;;;;;;5.18;2.30;;;10.40;96.50;;;;;;5093690;28;20026;-83
2023/10/17 10:05:20;;;;;;;6.40;2.80;;;10.50;96.60;;;;;;5095353;28;20040;-82
2023/10/17 10:07:46;;;;;;;4.93;2.38;;;10.50;96.40;;;;;;5093882;28;20026;-81
2023/10/17 10:10:48;;;;;;;3.55;2.30;;;10.60;96.30;;;;;;5111801;28;20110;-80
2023/10/17 10:13:14;;;;;;;5.03;2.85;;;10.70;96.70;;;;;;5107312;28;20122;-84
2023/10/17 10:15:49;;;;;;;6.90;2.97;;;10.70;96.30;;;;;;5116838;28;20051;-83
2023/10/17 10:18:15;;;;;;;4.63;2.63;;;10.70;96.30;;;;;;5083378;28;20024;-83
2023/10/17 10:20:57;;;;;;;5.70;2.78;;;10.80;96.00;;;;;;5115523;28;20016;-85
2023/10/17 10:23:36;;;;;;;5.40;3.05;;;10.80;96.40;;;;;;5102002;28;20027;-84
2023/10/17 10:26:22;;;;;;;5.35;2.55;;;10.80;96.20;;;;;;5112307;28;20042;-82
2023/10/17 10:28:51;;;;;;;5.88;2.35;;;10.80;95.90;;;;;;5094088;28;20092;-83
2023/10/17 10:31:23;;;;;;;7.55;3.13;;;10.80;96.00;;;;;;5108291;28;20012;-82
2023/10/17 10:33:50;;;;;;;5.30;2.53;;;10.90;96.20;;;;;;5114467;28;20068;-84
2023/10/17 10:36:26;;;;;;;6.05;2.50;;;10.90;95.80;;;;;;5097996;28;20067;-87
2023/10/17 10:38:57;;;;;;;4.30;2.70;;;11.00;96.00;;;;;;5114651;28;20038;-83
2023/10/17 10:41:23;;;;;;;5.20;2.75;;;11.00;95.70;;;;;;5101411;28;20491;-85
2023/10/17 10:43:57;;;;;;;5.07;2.85;;;11.00;96.10;;;;;;5074399;28;20028;-84
2023/10/17 10:46:23;;;;;;;4.40;2.78;;;11.00;95.80;;;;;;5087240;28;20041;-85
2023/10/17 10:48:51;;;;;;;7.18;2.90;;;11.00;95.80;;;;;;5106334;28;20020;-82
2023/10/17 10:51:26;;;;;;;3.88;2.67;;;11.10;95.80;;;;;;5094879;28;20111;-81
2023/10/17 10:53:56;;;;;;;6.00;2.92;;;11.10;95.70;;;;;;5095096;28;20444;-82
2023/10/17 10:56:24;;;;;;;4.07;2.78;;;11.10;95.60;;;;;;5094384;28;20392;-82
2023/10/17 10:58:55;;;;;;;5.47;2.80;;;11.20;95.70;;;;;;5091142;28;20461;-82
2023/10/17 11:01:22;;;;;;;4.88;2.58;;;11.20;95.80;;;;;;5074686;28;20081;-82
2023/10/17 11:03:50;;;;;;;4.82;2.80;;;11.20;95.70;;;;;;5075222;28;20024;-83
2023/10/17 11:06:27;;;;;;;8.35;3.50;;;11.20;95.60;;;;;;5091446;28;20036;-83
2023/10/17 11:08:56;;;;;;;9.45;2.88;;;11.20;95.80;;;;;;5093884;28;20110;-81
2023/10/17 11:11:21;;;;;;;4.45;2.38;;;11.20;95.70;;;;;;5104230;28;20179;-81
2023/10/17 11:13:52;;;;;;;5.03;3.03;;;11.30;95.80;;;;;;5109430;28;20190;-82
2023/10/17 11:16:21;;;;;;;4.28;2.63;;;11.30;95.80;;;;;;5085779;28;20024;-82
2023/10/17 11:18:47;;;;;;;6.13;3.40;;;11.30;95.80;;;;;;5094160;28;20170;-82
2023/10/17 11:21:14;;;;;;;7.47;2.67;;;11.20;95.90;;;;;;5094640;28;20093;-82
2023/10/17 11:23:46;;;;;;;6.75;3.00;;;11.30;95.90;;;;;;5096522;28;20502;-82
2023/10/17 11:26:13;;;;;;;6.47;2.53;;;11.40;96.00;;;;;;5110030;28;20558;-82
2023/10/17 11:28:42;;;;;;;6.22;3.28;;;11.50;96.30;;;;;;5080658;28;20020;-82
2023/10/17 11:31:27;;;;;;;6.38;3.03;;;11.50;96.40;;;;;;5095129;28;20457;-82
2023/10/17 11:33:59;;;;;;;7.57;3.58;;;11.60;96.20;;;;;;5101236;28;20063;-82
2023/10/17 11:36:25;;;;;;;;;;;11.70;96.30;;;;;;5095895;28;20528;-80
2023/10/17 11:38:56;;;;;;;4.35;3.05;;;11.80;96.40;;;;;;5094695;28;19904;-78
2023/10/17 11:41:28;;;;;;;5.33;2.97;;;11.90;96.00;;;;;;5093444;28;20023;-80
2023/10/17 11:43:54;;;;;;;6.00;3.50;;;11.90;95.90;;;;;;5104460;28;20059;-80
2023/10/17 11:46:30;;;;;;;5.90;3.22;;;12.00;95.80;;;;;;5104219;28;20457;-83
2023/10/17 11:49:21;;;;;;;7.05;3.30;;;12.00;95.50;;;;;;5092538;28;20047;-80
2023/10/17 11:52:09;;;;;;;6.63;3.17;;;12.00;95.50;;;;;;5106710;28;20024;-81
2023/10/17 11:54:52;;;;;;;5.13;3.28;;;12.00;95.50;;;;;;5096084;28;20031;-83
2023/10/17 11:57:23;;;;;;;8.10;3.30;;;12.10;95.70;;;;;;5104853;28;20016;-83
2023/10/17 12:00:01;;;;;;;6.43;3.25;;;12.20;95.50;;;;;;5111940;28;20065;-82
2023/10/17 12:02:29;;;;;;;8.05;3.40;;;12.20;95.20;;;;;;5102967;28;20457;-81
2023/10/17 12:04:55;;;;;;;7.88;3.28;;;12.40;95.30;;;;;;5092386;28;20126;-81
2023/10/17 12:07:21;;;;;;;6.70;3.60;;;12.60;95.20;;;;;;5096603;28;20063;-81
2023/10/17 12:09:47;;;;;;;7.47;3.22;;;12.60;95.00;;;;;;5096015;28;20022;-81
2023/10/17 12:12:12;;;;;;;6.38;3.47;;;12.60;95.40;;;;;;5096685;28;20016;-81
2023/10/17 12:14:38;;;;;;;5.25;3.10;;;12.60;95.40;;;;;;5097443;28;20077;-81
2023/10/17 12:17:08;;;;;;;5.28;2.90;;;12.60;95.10;;;;;;5094795;28;20535;-84
2023/10/17 12:19:33;;;;;;;5.55;3.30;;;12.60;95.20;;;;;;5097405;28;20090;-82
2023/10/17 12:22:04;;;;;;;6.10;3.83;;;12.50;94.90;;;;;;5104243;28;20032;-82
2023/10/17 12:24:34;;;;;;;4.90;3.25;;;12.50;95.20;;;;;;5105393;28;20460;-83
2023/10/17 12:27:06;;;;;;;6.82;3.42;;;12.60;95.40;;;;;;5113618;28;20110;-83
2023/10/17 12:29:34;;;;;;;8.70;3.58;;;12.70;95.20;;;;;;5098358;28;20008;-84
2023/10/17 12:32:01;;;;;;;6.97;3.88;;;12.90;95.20;;;;;;5104737;28;20509;-83
2023/10/17 12:34:30;;;;;;;7.57;3.70;;;13.00;94.90;;;;;;5105642;28;20115;-84
2023/10/17 12:36:56;;;;;;;7.07;3.63;;;13.00;95.00;;;;;;5096601;28;20020;-82
2023/10/17 12:39:22;;;;;;;6.85;3.33;;;13.00;94.90;;;;;;5096736;28;20510;-84
2023/10/17 12:41:48;;;;;;;7.78;3.55;;;12.90;94.60;;;;;;5093772;28;20016;-83
2023/10/17 12:44:15;;;;;;;8.07;3.35;;;12.90;94.30;;;;;;5102686;28;20111;-84
2023/10/17 12:46:41;;;;;;;7.78;3.72;;;12.90;94.70;;;;;;5099583;28;20077;-84
2023/10/17 12:49:10;;;;;;;6.22;3.38;;;12.80;94.60;;;;;;5109911;28;20028;-82
2023/10/17 12:51:39;;;;;;;8.05;3.88;;;12.80;94.90;;;;;;5098682;28;20014;-83
2023/10/17 12:54:08;;;;;;;5.82;3.05;;;12.80;94.60;;;;;;5105015;28;20024;-83
2023/10/17 12:56:36;;;;;;;5.75;3.28;;;12.80;94.90;;;;;;5105773;28;20476;-83
2023/10/17 12:59:03;;;;;;;13.10;3.88;;;12.90;94.70;;;;;;5096693;28;20016;-82
2023/10/17 13:01:29;;;;;;;8.00;3.58;;;13.00;94.90;;;;;;5112828;28;20016;-83
2023/10/17 13:03:57;;;;;;;7.75;3.83;;;13.10;94.90;;;;;;5104080;28;20072;-82
2023/10/17 13:06:27;;;;;;;7.28;3.72;;;13.10;94.80;;;;;;5105835;28;20027;-84
2023/10/17 13:08:56;;;;;;;8.88;3.72;;;13.20;94.50;;;;;;5112076;28;20029;-86
2023/10/17 13:11:26;;;;;;;7.30;3.45;;;13.20;94.90;;;;;;5097678;28;20110;-84
2023/10/17 13:13:53;;;;;;;5.75;3.42;;;13.30;95.10;;;;;;5103639;28;20051;-86
2023/10/17 13:16:20;;;;;;;7.00;3.83;;;13.40;94.90;;;;;;5104442;28;20016;-84
2023/10/17 13:18:47;;;;;;;6.13;3.40;;;13.40;94.30;;;;;;5111267;28;20380;-85
2023/10/17 13:21:14;;;;;;;5.80;3.30;;;13.40;94.60;;;;;;5099163;28;20111;-85
2023/10/17 13:23:40;;;;;;;7.18;3.80;;;13.50;94.50;;;;;;5112004;28;20024;-84
2023/10/17 13:26:15;;;;;;;8.27;3.53;;;13.50;94.20;;;;;;5105722;28;20024;-82
2023/10/17 13:28:41;;;;;;;6.07;3.50;;;13.60;94.30;;;;;;5103558;28;20023;-87
2023/10/17 13:31:14;;;;;;;9.43;3.45;;;13.60;94.50;;;;;;5111983;28;20027;-88
2023/10/17 13:33:45;;;;;;;6.32;3.60;;;13.70;94.20;;;;;;5101244;28;20020;-84
2023/10/17 13:36:11;;;;;;;5.15;3.15;;;13.80;94.10;;;;;;5105598;28;20385;-81
2023/10/17 13:38:40;;;;;;;6.28;3.60;;;13.90;93.90;;;;;;5109229;28;20511;-82
2023/10/17 13:41:09;;;;;;;6.53;3.20;;;14.10;94.00;;;;;;5097543;28;20016;-82
2023/10/17 13:43:35;;;;;;;7.03;3.42;;;14.20;93.90;;;;;;5101695;28;20023;-83
2023/10/17 13:46:08;;;;;;;6.32;3.97;;;14.20;93.30;;;;;;5106404;28;20089;-84
2023/10/17 13:48:34;;;;;;;8.40;3.60;;;14.40;93.30;;;;;;5108596;28;20030;-84
2023/10/17 13:51:04;;;;;;;8.30;3.80;;;14.50;93.10;;;;;;5098531;28;20028;-82
2023/10/17 13:53:29;;;;;;;8.02;3.90;;;14.60;93.30;;;;;;5083642;28;20102;-87
2023/10/17 13:55:55;;;;;;;6.40;3.50;;;14.70;93.00;;;;;;5108954;28;20051;-84
2023/10/17 13:58:21;;;;;;;5.60;3.70;;;14.80;93.10;;;;;;5099417;28;20016;-83
2023/10/17 14:00:51;;;;;;;6.70;3.40;;;14.70;92.90;;;;;;5095308;28;20024;-83
2023/10/17 14:03:17;;;;;;;6.47;3.67;;;14.70;92.90;;;;;;5111502;28;20020;-83
2023/10/17 14:05:47;;;;;;;7.88;3.33;;;14.60;93.10;;;;;;5102093;28;20024;-84
2023/10/17 14:08:13;;;;;;;9.10;4.00;;;14.40;92.80;;;;;;5105696;28;20076;-84
2023/10/17 14:10:46;;;;;;;6.22;3.47;;;14.30;93.50;;;;;;5095552;28;20023;-83
2023/10/17 14:13:15;;;;;;;6.55;3.55;;;14.20;93.20;;;;;;5094647;28;20020;-82
2023/10/17 14:15:41;;;;;;;9.43;3.90;;;14.10;93.10;;;;;;5101806;28;20026;-81
2023/10/17 14:18:09;;;;;;;6.10;3.33;;;14.10;93.40;;;;;;5100930;28;20056;-82
2023/10/17 14:21:04;;;;;;;6.05;3.25;;;14.00;93.80;;;;;;5100188;28;20024;-82
2023/10/17 14:23:32;;;;;;;8.48;3.65;;;13.90;93.80;;;;;;5097631;28;20023;-85
2023/10/17 14:26:03;;;;;;;6.68;3.67;;;13.90;94.10;;;;;;5107907;28;20518;-79
2023/10/17 14:28:29;;;;;;;6.10;3.42;;;13.90;94.10;;;;;;5107677;28;20043;-81
2023/10/17 14:30:55;;;;;;;7.88;3.40;;;13.90;94.00;;;;;;5116216;28;20030;-82
2023/10/17 14:33:21;;;;;;;9.50;3.80;;;13.80;93.90;;;;;;5112810;28;20433;-82
2023/10/17 14:35:48;;;;;;;5.97;3.63;;;13.70;93.90;;;;;;5095968;28;20040;-83
2023/10/17 14:38:16;;;;;;;7.60;3.42;;;13.60;94.10;;;;;;5104532;28;20019;-82
2023/10/17 14:40:42;;;;;;;9.70;3.70;;;13.60;94.30;;;;;;5100280;28;20024;-82
2023/10/17 14:43:13;;;;;;;7.47;3.70;;;13.50;94.30;;;;;;5095212;28;20016;-83
2023/10/17 14:45:40;;;;;;;6.78;3.92;;;13.50;94.50;;;;;;5111584;28;20054;-84
2023/10/17 14:48:07;;;;;;;6.05;3.40;;;13.40;94.60;;;;;;5104051;28;20077;-85
2023/10/17 14:50:33;;;;;;;8.57;3.80;;;13.30;94.70;;;;;;5113480;28;20430;-83
2023/10/17 14:52:59;;;;;;;7.25;3.63;;;13.20;94.90;;;;;;5095110;28;20103;-83
2023/10/17 14:55:26;;;;;;;6.28;3.35;;;13.10;95.10;;;;;;5093970;28;20027;-84
2023/10/17 14:57:53;;;;;;;10.10;3.33;;;13.10;95.10;;;;;;5092188;28;20051;-82
2023/10/17 15:00:20;;;;;;;8.13;3.85;;;13.10;95.30;;;;;;5094185;28;20020;-81
2023/10/17 15:02:47;;;;;;;6.07;3.40;;;13.00;95.40;;;;;;5095741;28;20040;-82
2023/10/17 15:05:14;;;;;;;6.53;3.35;;;13.00;95.70;;;;;;5094971;28;20063;-84
2023/10/17 15:07:40;;;;;;;10.90;4.40;;;13.00;95.50;;;;;;5097428;28;20107;-83
2023/10/17 15:10:17;;;;;;;6.65;3.50;;;12.90;95.70;;;;;;5098317;28;20017;-84
2023/10/17 15:12:45;;;;;;;7.28;3.35;;;12.90;95.80;;;;;;5088865;28;20069;-84